sensor_id;sensor_type;location;lat;lon;timestamp;P1;durP1;ratioP1;P2;durP2;ratioP2
11663;SDS011;72375;59.302;18.204;2024-01-15T00:00:39;1.07;;;0.30;;
11663;SDS011;72375;59.302;18.204;2024-01-15T00:03:26;1.10;;;0.37;;
11663;SDS011;72375;59.302;18.204;2024-01-15T00:06:11;1.77;;;0.53;;
11663;SDS011;72375;59.302;18.204;2024-01-15T00:08:57;1.63;;;0.30;;
11663;SDS011;72375;59.302;18.204;2024-01-15T00:11:43;0.47;;;0.37;;
11663;SDS011;72375;59.302;18.204;2024-01-15T00:14:28;3.00;;;0.53;;
11663;SDS011;72375;59.302;18.204;2024-01-15T00:17:14;1.63;;;0.50;;
11663;SDS011;72375;59.302;18.204;2024-01-15T00:20:01;1.43;;;0.37;;
11663;SDS011;72375;59.302;18.204;2024-01-15T00:22:47;1.47;;;0.40;;
11663;SDS011;72375;59.302;18.204;2024-01-15T00:25:33;0.67;;;0.47;;
11663;SDS011;72375;59.302;18.204;2024-01-15T00:28:19;1.63;;;0.37;;
11663;SDS011;72375;59.302;18.204;2024-01-15T00:31:05;1.13;;;0.37;;
11663;SDS011;72375;59.302;18.204;2024-01-15T00:33:50;0.10;;;0.10;;
11663;SDS011;72375;59.302;18.204;2024-01-15T00:36:37;2.40;;;0.40;;
11663;SDS011;72375;59.302;18.204;2024-01-15T00:39:23;1.40;;;0.30;;
11663;SDS011;72375;59.302;18.204;2024-01-15T00:42:08;0.60;;;0.50;;
11663;SDS011;72375;59.302;18.204;2024-01-15T00:44:54;1.27;;;0.70;;
11663;SDS011;72375;59.302;18.204;2024-01-15T00:47:40;2.80;;;0.43;;
11663;SDS011;72375;59.302;18.204;2024-01-15T00:50:25;0.47;;;0.30;;
11663;SDS011;72375;59.302;18.204;2024-01-15T00:53:12;0.83;;;0.40;;
11663;SDS011;72375;59.302;18.204;2024-01-15T00:55:58;0.30;;;0.20;;
11663;SDS011;72375;59.302;18.204;2024-01-15T00:58:44;2.53;;;0.33;;
11663;SDS011;72375;59.302;18.204;2024-01-15T01:01:29;0.50;;;0.30;;
11663;SDS011;72375;59.302;18.204;2024-01-15T01:04:15;1.90;;;0.20;;
11663;SDS011;72375;59.302;18.204;2024-01-15T01:07:01;0.50;;;0.37;;
11663;SDS011;72375;59.302;18.204;2024-01-15T01:09:48;1.50;;;0.43;;
11663;SDS011;72375;59.302;18.204;2024-01-15T01:12:35;0.50;;;0.40;;
11663;SDS011;72375;59.302;18.204;2024-01-15T01:15:20;0.50;;;0.33;;
11663;SDS011;72375;59.302;18.204;2024-01-15T01:18:06;3.20;;;0.40;;
11663;SDS011;72375;59.302;18.204;2024-01-15T01:20:51;2.70;;;0.47;;
11663;SDS011;72375;59.302;18.204;2024-01-15T01:23:37;1.70;;;0.40;;
11663;SDS011;72375;59.302;18.204;2024-01-15T01:26:24;3.17;;;0.50;;
11663;SDS011;72375;59.302;18.204;2024-01-15T01:29:10;1.37;;;0.50;;
11663;SDS011;72375;59.302;18.204;2024-01-15T01:31:56;0.40;;;0.30;;
11663;SDS011;72375;59.302;18.204;2024-01-15T01:34:41;3.53;;;0.73;;
11663;SDS011;72375;59.302;18.204;2024-01-15T01:37:27;1.70;;;0.47;;
11663;SDS011;72375;59.302;18.204;2024-01-15T01:40:13;3.33;;;0.50;;
11663;SDS011;72375;59.302;18.204;2024-01-15T01:43:00;1.83;;;0.37;;
11663;SDS011;72375;59.302;18.204;2024-01-15T01:45:47;2.07;;;0.60;;
11663;SDS011;72375;59.302;18.204;2024-01-15T01:48:32;0.63;;;0.30;;
11663;SDS011;72375;59.302;18.204;2024-01-15T01:51:18;2.77;;;0.53;;
11663;SDS011;72375;59.302;18.204;2024-01-15T01:54:06;2.27;;;0.70;;
11663;SDS011;72375;59.302;18.204;2024-01-15T01:56:56;0.57;;;0.20;;
11663;SDS011;72375;59.302;18.204;2024-01-15T01:59:44;1.20;;;0.37;;
11663;SDS011;72375;59.302;18.204;2024-01-15T02:02:30;0.87;;;0.67;;
11663;SDS011;72375;59.302;18.204;2024-01-15T02:05:18;1.03;;;0.40;;
11663;SDS011;72375;59.302;18.204;2024-01-15T02:08:04;1.97;;;0.70;;
11663;SDS011;72375;59.302;18.204;2024-01-15T02:10:50;2.37;;;0.30;;
11663;SDS011;72375;59.302;18.204;2024-01-15T02:13:35;0.80;;;0.37;;
11663;SDS011;72375;59.302;18.204;2024-01-15T02:16:22;0.53;;;0.30;;
11663;SDS011;72375;59.302;18.204;2024-01-15T02:19:14;1.40;;;0.50;;
11663;SDS011;72375;59.302;18.204;2024-01-15T02:22:00;5.37;;;0.50;;
11663;SDS011;72375;59.302;18.204;2024-01-15T02:24:47;0.97;;;0.33;;
11663;SDS011;72375;59.302;18.204;2024-01-15T02:27:33;1.83;;;0.50;;
11663;SDS011;72375;59.302;18.204;2024-01-15T02:30:19;1.47;;;0.50;;
11663;SDS011;72375;59.302;18.204;2024-01-15T02:33:04;2.47;;;0.43;;
11663;SDS011;72375;59.302;18.204;2024-01-15T02:35:50;0.83;;;0.40;;
11663;SDS011;72375;59.302;18.204;2024-01-15T02:38:36;1.80;;;0.40;;
11663;SDS011;72375;59.302;18.204;2024-01-15T02:41:23;0.80;;;0.47;;
11663;SDS011;72375;59.302;18.204;2024-01-15T02:44:08;1.70;;;0.40;;
11663;SDS011;72375;59.302;18.204;2024-01-15T02:46:54;0.77;;;0.47;;
11663;SDS011;72375;59.302;18.204;2024-01-15T02:49:40;2.13;;;0.47;;
11663;SDS011;72375;59.302;18.204;2024-01-15T02:52:25;0.83;;;0.40;;
11663;SDS011;72375;59.302;18.204;2024-01-15T02:55:11;0.90;;;0.40;;
11663;SDS011;72375;59.302;18.204;2024-01-15T02:57:58;1.07;;;0.50;;
11663;SDS011;72375;59.302;18.204;2024-01-15T03:00:44;0.70;;;0.40;;
11663;SDS011;72375;59.302;18.204;2024-01-15T03:03:29;3.10;;;1.07;;
11663;SDS011;72375;59.302;18.204;2024-01-15T03:06:17;0.77;;;0.40;;
11663;SDS011;72375;59.302;18.204;2024-01-15T03:09:02;0.87;;;0.40;;
11663;SDS011;72375;59.302;18.204;2024-01-15T03:11:48;0.90;;;0.40;;
11663;SDS011;72375;59.302;18.204;2024-01-15T03:14:36;0.93;;;0.37;;
11663;SDS011;72375;59.302;18.204;2024-01-15T03:17:21;2.77;;;0.50;;
11663;SDS011;72375;59.302;18.204;2024-01-15T03:20:07;1.47;;;0.47;;
11663;SDS011;72375;59.302;18.204;2024-01-15T03:22:53;1.27;;;0.40;;
11663;SDS011;72375;59.302;18.204;2024-01-15T03:25:39;0.67;;;0.40;;
11663;SDS011;72375;59.302;18.204;2024-01-15T03:28:24;0.50;;;0.30;;
11663;SDS011;72375;59.302;18.204;2024-01-15T03:31:12;1.67;;;0.50;;
11663;SDS011;72375;59.302;18.204;2024-01-15T03:33:57;1.60;;;0.40;;
11663;SDS011;72375;59.302;18.204;2024-01-15T03:36:42;0.97;;;0.30;;
11663;SDS011;72375;59.302;18.204;2024-01-15T03:39:28;1.67;;;0.40;;
11663;SDS011;72375;59.302;18.204;2024-01-15T03:42:14;2.93;;;0.50;;
11663;SDS011;72375;59.302;18.204;2024-01-15T03:44:59;0.30;;;0.30;;
11663;SDS011;72375;59.302;18.204;2024-01-15T03:47:47;1.23;;;0.30;;
11663;SDS011;72375;59.302;18.204;2024-01-15T03:50:32;0.47;;;0.30;;
11663;SDS011;72375;59.302;18.204;2024-01-15T03:53:18;1.27;;;0.37;;
11663;SDS011;72375;59.302;18.204;2024-01-15T03:56:04;0.40;;;0.30;;
11663;SDS011;72375;59.302;18.204;2024-01-15T03:58:50;1.73;;;0.40;;
11663;SDS011;72375;59.302;18.204;2024-01-15T04:01:35;1.97;;;0.30;;
11663;SDS011;72375;59.302;18.204;2024-01-15T04:04:22;1.40;;;0.43;;
11663;SDS011;72375;59.302;18.204;2024-01-15T04:07:08;1.57;;;0.50;;
11663;SDS011;72375;59.302;18.204;2024-01-15T04:09:54;0.90;;;0.40;;
11663;SDS011;72375;59.302;18.204;2024-01-15T04:12:40;0.90;;;0.40;;
11663;SDS011;72375;59.302;18.204;2024-01-15T04:15:25;1.60;;;0.70;;
11663;SDS011;72375;59.302;18.204;2024-01-15T04:18:11;2.57;;;0.60;;
11663;SDS011;72375;59.302;18.204;2024-01-15T04:20:58;1.23;;;0.50;;
11663;SDS011;72375;59.302;18.204;2024-01-15T04:23:44;1.60;;;0.67;;
11663;SDS011;72375;59.302;18.204;2024-01-15T04:26:30;0.60;;;0.40;;
11663;SDS011;72375;59.302;18.204;2024-01-15T04:29:15;0.60;;;0.60;;
11663;SDS011;72375;59.302;18.204;2024-01-15T04:32:01;2.40;;;0.50;;
11663;SDS011;72375;59.302;18.204;2024-01-15T04:34:47;1.07;;;0.67;;
11663;SDS011;72375;59.302;18.204;2024-01-15T04:37:34;1.80;;;0.73;;
11663;SDS011;72375;59.302;18.204;2024-01-15T04:40:20;1.50;;;0.77;;
11663;SDS011;72375;59.302;18.204;2024-01-15T04:43:05;1.50;;;0.57;;
11663;SDS011;72375;59.302;18.204;2024-01-15T04:45:51;0.57;;;0.47;;
11663;SDS011;72375;59.302;18.204;2024-01-15T04:48:37;2.20;;;0.70;;
11663;SDS011;72375;59.302;18.204;2024-01-15T04:51:23;1.17;;;0.50;;
11663;SDS011;72375;59.302;18.204;2024-01-15T04:54:10;0.87;;;0.43;;
11663;SDS011;72375;59.302;18.204;2024-01-15T04:56:55;0.83;;;0.47;;
11663;SDS011;72375;59.302;18.204;2024-01-15T04:59:41;1.07;;;0.70;;
11663;SDS011;72375;59.302;18.204;2024-01-15T05:02:27;3.03;;;0.77;;
11663;SDS011;72375;59.302;18.204;2024-01-15T05:05:12;1.07;;;0.70;;
11663;SDS011;72375;59.302;18.204;2024-01-15T05:07:58;1.00;;;0.80;;
11663;SDS011;72375;59.302;18.204;2024-01-15T05:10:45;1.57;;;0.70;;
11663;SDS011;72375;59.302;18.204;2024-01-15T05:13:32;1.33;;;0.63;;
11663;SDS011;72375;59.302;18.204;2024-01-15T05:16:17;0.80;;;0.70;;
11663;SDS011;72375;59.302;18.204;2024-01-15T05:19:03;1.30;;;0.73;;
11663;SDS011;72375;59.302;18.204;2024-01-15T05:21:49;3.10;;;0.80;;
11663;SDS011;72375;59.302;18.204;2024-01-15T05:24:35;1.83;;;0.73;;
11663;SDS011;72375;59.302;18.204;2024-01-15T05:27:22;1.10;;;1.00;;
11663;SDS011;72375;59.302;18.204;2024-01-15T05:30:07;1.60;;;1.27;;
11663;SDS011;72375;59.302;18.204;2024-01-15T05:32:54;1.73;;;0.90;;
11663;SDS011;72375;59.302;18.204;2024-01-15T05:35:39;1.77;;;1.10;;
11663;SDS011;72375;59.302;18.204;2024-01-15T05:38:25;3.33;;;1.00;;
11663;SDS011;72375;59.302;18.204;2024-01-15T05:41:11;1.00;;;0.90;;
11663;SDS011;72375;59.302;18.204;2024-01-15T05:43:58;3.23;;;1.20;;
11663;SDS011;72375;59.302;18.204;2024-01-15T05:46:43;1.47;;;1.00;;
11663;SDS011;72375;59.302;18.204;2024-01-15T05:49:28;1.13;;;1.03;;
11663;SDS011;72375;59.302;18.204;2024-01-15T05:52:14;2.00;;;1.17;;
11663;SDS011;72375;59.302;18.204;2024-01-15T05:55:00;1.60;;;1.13;;
11663;SDS011;72375;59.302;18.204;2024-01-15T05:57:46;2.10;;;1.30;;
11663;SDS011;72375;59.302;18.204;2024-01-15T06:00:33;2.83;;;1.53;;
11663;SDS011;72375;59.302;18.204;2024-01-15T06:03:19;1.63;;;1.40;;
11663;SDS011;72375;59.302;18.204;2024-01-15T06:06:05;3.13;;;1.23;;
11663;SDS011;72375;59.302;18.204;2024-01-15T06:08:50;2.13;;;1.50;;
11663;SDS011;72375;59.302;18.204;2024-01-15T06:11:37;2.53;;;1.50;;
11663;SDS011;72375;59.302;18.204;2024-01-15T06:14:22;2.13;;;1.67;;
11663;SDS011;72375;59.302;18.204;2024-01-15T06:17:09;3.07;;;1.50;;
11663;SDS011;72375;59.302;18.204;2024-01-15T06:19:56;2.73;;;1.40;;
11663;SDS011;72375;59.302;18.204;2024-01-15T06:22:41;2.60;;;1.43;;
11663;SDS011;72375;59.302;18.204;2024-01-15T06:25:27;5.13;;;1.37;;
11663;SDS011;72375;59.302;18.204;2024-01-15T06:28:13;3.03;;;1.90;;
11663;SDS011;72375;59.302;18.204;2024-01-15T06:30:58;1.80;;;1.67;;
11663;SDS011;72375;59.302;18.204;2024-01-15T06:33:45;3.20;;;2.20;;
11663;SDS011;72375;59.302;18.204;2024-01-15T06:36:32;2.10;;;1.67;;
11663;SDS011;72375;59.302;18.204;2024-01-15T06:39:18;4.77;;;2.13;;
11663;SDS011;72375;59.302;18.204;2024-01-15T06:42:04;2.83;;;2.20;;
11663;SDS011;72375;59.302;18.204;2024-01-15T06:44:49;4.90;;;2.47;;
11663;SDS011;72375;59.302;18.204;2024-01-15T06:47:35;3.23;;;2.40;;
11663;SDS011;72375;59.302;18.204;2024-01-15T06:50:22;3.00;;;2.20;;
11663;SDS011;72375;59.302;18.204;2024-01-15T06:53:09;3.47;;;2.17;;
11663;SDS011;72375;59.302;18.204;2024-01-15T06:55:55;3.40;;;2.20;;
11663;SDS011;72375;59.302;18.204;2024-01-15T06:58:40;3.83;;;2.43;;
11663;SDS011;72375;59.302;18.204;2024-01-15T07:01:26;3.43;;;2.50;;
11663;SDS011;72375;59.302;18.204;2024-01-15T07:04:12;3.80;;;2.73;;
11663;SDS011;72375;59.302;18.204;2024-01-15T07:06:59;3.00;;;2.50;;
11663;SDS011;72375;59.302;18.204;2024-01-15T07:09:45;2.73;;;2.47;;
11663;SDS011;72375;59.302;18.204;2024-01-15T07:12:30;3.07;;;2.40;;
11663;SDS011;72375;59.302;18.204;2024-01-15T07:15:16;2.47;;;2.27;;
11663;SDS011;72375;59.302;18.204;2024-01-15T07:18:02;2.97;;;2.53;;
11663;SDS011;72375;59.302;18.204;2024-01-15T07:20:48;4.07;;;2.53;;
11663;SDS011;72375;59.302;18.204;2024-01-15T07:23:35;3.67;;;2.33;;
11663;SDS011;72375;59.302;18.204;2024-01-15T07:26:20;2.93;;;2.30;;
11663;SDS011;72375;59.302;18.204;2024-01-15T07:29:06;3.77;;;2.43;;
11663;SDS011;72375;59.302;18.204;2024-01-15T07:31:52;2.70;;;2.00;;
11663;SDS011;72375;59.302;18.204;2024-01-15T07:34:38;3.40;;;2.20;;
11663;SDS011;72375;59.302;18.204;2024-01-15T07:37:24;3.00;;;2.13;;
11663;SDS011;72375;59.302;18.204;2024-01-15T07:40:11;1.97;;;1.77;;
11663;SDS011;72375;59.302;18.204;2024-01-15T07:42:57;2.33;;;1.80;;
11663;SDS011;72375;59.302;18.204;2024-01-15T07:45:42;2.90;;;1.93;;
11663;SDS011;72375;59.302;18.204;2024-01-15T07:48:29;2.50;;;1.30;;
11663;SDS011;72375;59.302;18.204;2024-01-15T07:51:14;3.13;;;1.77;;
11663;SDS011;72375;59.302;18.204;2024-01-15T07:54:00;2.70;;;1.40;;
11663;SDS011;72375;59.302;18.204;2024-01-15T07:56:54;2.77;;;1.30;;
11663;SDS011;72375;59.302;18.204;2024-01-15T07:59:40;1.57;;;1.03;;
11663;SDS011;72375;59.302;18.204;2024-01-15T08:02:27;4.73;;;1.13;;
11663;SDS011;72375;59.302;18.204;2024-01-15T08:05:13;1.47;;;1.07;;
11663;SDS011;72375;59.302;18.204;2024-01-15T08:07:58;2.60;;;0.90;;
11663;SDS011;72375;59.302;18.204;2024-01-15T08:10:44;0.60;;;0.60;;
11663;SDS011;72375;59.302;18.204;2024-01-15T08:13:31;1.33;;;0.60;;
11663;SDS011;72375;59.302;18.204;2024-01-15T08:16:17;1.17;;;0.77;;
11663;SDS011;72375;59.302;18.204;2024-01-15T08:19:03;3.30;;;0.70;;
11663;SDS011;72375;59.302;18.204;2024-01-15T08:21:49;3.13;;;0.80;;
11663;SDS011;72375;59.302;18.204;2024-01-15T08:24:35;2.60;;;0.50;;
11663;SDS011;72375;59.302;18.204;2024-01-15T08:27:20;1.83;;;0.50;;
11663;SDS011;72375;59.302;18.204;2024-01-15T08:30:08;1.97;;;0.60;;
11663;SDS011;72375;59.302;18.204;2024-01-15T08:32:55;1.47;;;0.60;;
11663;SDS011;72375;59.302;18.204;2024-01-15T08:35:40;2.40;;;0.47;;
11663;SDS011;72375;59.302;18.204;2024-01-15T08:38:26;1.53;;;0.50;;
11663;SDS011;72375;59.302;18.204;2024-01-15T08:41:11;1.37;;;0.30;;
11663;SDS011;72375;59.302;18.204;2024-01-15T08:43:57;0.70;;;0.40;;
11663;SDS011;72375;59.302;18.204;2024-01-15T08:46:45;0.50;;;0.40;;
11663;SDS011;72375;59.302;18.204;2024-01-15T08:49:30;1.07;;;0.40;;
11663;SDS011;72375;59.302;18.204;2024-01-15T08:52:16;2.10;;;0.37;;
11663;SDS011;72375;59.302;18.204;2024-01-15T08:55:01;1.60;;;0.43;;
11663;SDS011;72375;59.302;18.204;2024-01-15T08:57:48;0.53;;;0.30;;
11663;SDS011;72375;59.302;18.204;2024-01-15T09:00:33;1.13;;;0.40;;
11663;SDS011;72375;59.302;18.204;2024-01-15T09:03:20;2.70;;;0.50;;
11663;SDS011;72375;59.302;18.204;2024-01-15T09:06:06;0.33;;;0.33;;
11663;SDS011;72375;59.302;18.204;2024-01-15T09:08:51;1.90;;;0.43;;
11663;SDS011;72375;59.302;18.204;2024-01-15T09:11:37;0.40;;;0.30;;
11663;SDS011;72375;59.302;18.204;2024-01-15T09:14:23;3.40;;;0.63;;
11663;SDS011;72375;59.302;18.204;2024-01-15T09:17:10;1.53;;;0.63;;
11663;SDS011;72375;59.302;18.204;2024-01-15T09:19:57;1.07;;;0.60;;
11663;SDS011;72375;59.302;18.204;2024-01-15T09:22:43;1.77;;;0.67;;
11663;SDS011;72375;59.302;18.204;2024-01-15T09:25:29;1.47;;;0.50;;
11663;SDS011;72375;59.302;18.204;2024-01-15T09:28:14;2.57;;;0.50;;
11663;SDS011;72375;59.302;18.204;2024-01-15T09:31:00;1.27;;;0.40;;
11663;SDS011;72375;59.302;18.204;2024-01-15T09:33:46;0.87;;;0.33;;
11663;SDS011;72375;59.302;18.204;2024-01-15T09:36:37;0.77;;;0.57;;
11663;SDS011;72375;59.302;18.204;2024-01-15T09:39:24;0.47;;;0.30;;
11663;SDS011;72375;59.302;18.204;2024-01-15T09:42:10;0.97;;;0.50;;
11663;SDS011;72375;59.302;18.204;2024-01-15T09:44:56;3.43;;;1.00;;
11663;SDS011;72375;59.302;18.204;2024-01-15T09:47:42;1.20;;;0.50;;
11663;SDS011;72375;59.302;18.204;2024-01-15T09:50:28;1.13;;;0.50;;
11663;SDS011;72375;59.302;18.204;2024-01-15T09:53:15;2.17;;;0.60;;
11663;SDS011;72375;59.302;18.204;2024-01-15T09:56:01;1.50;;;0.57;;
11663;SDS011;72375;59.302;18.204;2024-01-15T09:58:47;1.40;;;0.37;;
11663;SDS011;72375;59.302;18.204;2024-01-15T10:01:33;1.37;;;0.37;;
11663;SDS011;72375;59.302;18.204;2024-01-15T10:04:21;1.23;;;0.40;;
11663;SDS011;72375;59.302;18.204;2024-01-15T10:07:07;0.50;;;0.40;;
11663;SDS011;72375;59.302;18.204;2024-01-15T10:09:55;1.70;;;0.40;;
11663;SDS011;72375;59.302;18.204;2024-01-15T10:12:40;1.80;;;0.40;;
11663;SDS011;72375;59.302;18.204;2024-01-15T10:15:28;1.17;;;0.40;;
11663;SDS011;72375;59.302;18.204;2024-01-15T10:18:13;1.30;;;0.50;;
11663;SDS011;72375;59.302;18.204;2024-01-15T10:20:59;1.87;;;0.40;;
11663;SDS011;72375;59.302;18.204;2024-01-15T10:23:46;1.40;;;0.60;;
11663;SDS011;72375;59.302;18.204;2024-01-15T10:26:33;1.37;;;0.73;;
11663;SDS011;72375;59.302;18.204;2024-01-15T10:29:18;1.47;;;0.47;;
11663;SDS011;72375;59.302;18.204;2024-01-15T10:32:06;2.37;;;0.90;;
11663;SDS011;72375;59.302;18.204;2024-01-15T10:34:52;0.87;;;0.60;;
11663;SDS011;72375;59.302;18.204;2024-01-15T10:37:39;0.90;;;0.50;;
11663;SDS011;72375;59.302;18.204;2024-01-15T10:40:27;2.33;;;0.43;;
11663;SDS011;72375;59.302;18.204;2024-01-15T10:43:14;1.57;;;0.77;;
11663;SDS011;72375;59.302;18.204;2024-01-15T10:46:01;3.20;;;0.40;;
11663;SDS011;72375;59.302;18.204;2024-01-15T10:48:48;0.67;;;0.27;;
11663;SDS011;72375;59.302;18.204;2024-01-15T10:51:33;1.47;;;0.50;;
11663;SDS011;72375;59.302;18.204;2024-01-15T10:54:19;1.70;;;0.50;;
11663;SDS011;72375;59.302;18.204;2024-01-15T10:57:07;1.00;;;0.40;;
11663;SDS011;72375;59.302;18.204;2024-01-15T10:59:54;1.40;;;0.40;;
11663;SDS011;72375;59.302;18.204;2024-01-15T11:02:40;0.63;;;0.30;;
11663;SDS011;72375;59.302;18.204;2024-01-15T11:05:26;0.80;;;0.40;;
11663;SDS011;72375;59.302;18.204;2024-01-15T11:08:12;0.43;;;0.33;;
11663;SDS011;72375;59.302;18.204;2024-01-15T11:11:01;2.60;;;0.50;;
11663;SDS011;72375;59.302;18.204;2024-01-15T11:13:47;1.73;;;0.63;;
11663;SDS011;72375;59.302;18.204;2024-01-15T11:19:43;0.70;;;0.30;;
11663;SDS011;72375;59.302;18.204;2024-01-15T11:22:47;1.00;;;0.57;;
11663;SDS011;72375;59.302;18.204;2024-01-15T11:25:34;0.87;;;0.50;;
11663;SDS011;72375;59.302;18.204;2024-01-15T11:34:58;1.13;;;0.50;;
11663;SDS011;72375;59.302;18.204;2024-01-15T11:37:56;1.33;;;0.30;;
11663;SDS011;72375;59.302;18.204;2024-01-15T11:40:42;0.77;;;0.30;;
11663;SDS011;72375;59.302;18.204;2024-01-15T11:43:31;2.10;;;0.97;;
11663;SDS011;72375;59.302;18.204;2024-01-15T11:46:17;1.73;;;0.50;;
11663;SDS011;72375;59.302;18.204;2024-01-15T11:49:04;0.73;;;0.40;;
11663;SDS011;72375;59.302;18.204;2024-01-15T11:51:52;0.30;;;0.30;;
11663;SDS011;72375;59.302;18.204;2024-01-15T11:54:41;2.20;;;0.43;;
11663;SDS011;72375;59.302;18.204;2024-01-15T11:57:37;1.47;;;0.40;;
11663;SDS011;72375;59.302;18.204;2024-01-15T12:00:27;1.37;;;0.40;;
11663;SDS011;72375;59.302;18.204;2024-01-15T12:03:13;0.67;;;0.40;;
11663;SDS011;72375;59.302;18.204;2024-01-15T12:05:59;0.17;;;0.17;;
11663;SDS011;72375;59.302;18.204;2024-01-15T12:08:45;1.67;;;0.50;;
11663;SDS011;72375;59.302;18.204;2024-01-15T12:11:30;1.33;;;0.93;;
11663;SDS011;72375;59.302;18.204;2024-01-15T12:14:20;3.53;;;0.50;;
11663;SDS011;72375;59.302;18.204;2024-01-15T12:17:05;1.37;;;0.50;;
11663;SDS011;72375;59.302;18.204;2024-01-15T12:19:51;1.40;;;0.40;;
11663;SDS011;72375;59.302;18.204;2024-01-15T12:22:38;1.00;;;0.40;;
11663;SDS011;72375;59.302;18.204;2024-01-15T12:25:24;0.93;;;0.40;;
11663;SDS011;72375;59.302;18.204;2024-01-15T12:28:11;1.87;;;0.50;;
11663;SDS011;72375;59.302;18.204;2024-01-15T12:30:56;0.80;;;0.80;;
11663;SDS011;72375;59.302;18.204;2024-01-15T12:33:43;0.67;;;0.30;;
11663;SDS011;72375;59.302;18.204;2024-01-15T12:36:30;1.47;;;0.67;;
11663;SDS011;72375;59.302;18.204;2024-01-15T12:39:17;2.10;;;0.63;;
11663;SDS011;72375;59.302;18.204;2024-01-15T12:42:03;1.90;;;0.50;;
11663;SDS011;72375;59.302;18.204;2024-01-15T12:44:49;1.17;;;0.87;;
11663;SDS011;72375;59.302;18.204;2024-01-15T12:47:35;2.07;;;0.50;;
11663;SDS011;72375;59.302;18.204;2024-01-15T12:50:23;1.03;;;0.60;;
11663;SDS011;72375;59.302;18.204;2024-01-15T12:53:09;0.53;;;0.33;;
11663;SDS011;72375;59.302;18.204;2024-01-15T12:55:56;2.20;;;0.47;;
11663;SDS011;72375;59.302;18.204;2024-01-15T12:58:41;2.33;;;0.43;;
11663;SDS011;72375;59.302;18.204;2024-01-15T13:01:27;3.23;;;0.40;;
11663;SDS011;72375;59.302;18.204;2024-01-15T13:04:20;1.43;;;0.50;;
11663;SDS011;72375;59.302;18.204;2024-01-15T13:07:07;0.67;;;0.47;;
11663;SDS011;72375;59.302;18.204;2024-01-15T13:09:52;1.20;;;0.53;;
11663;SDS011;72375;59.302;18.204;2024-01-15T13:12:39;2.10;;;0.40;;
11663;SDS011;72375;59.302;18.204;2024-01-15T13:15:25;2.13;;;0.80;;
11663;SDS011;72375;59.302;18.204;2024-01-15T13:18:11;1.07;;;0.33;;
11663;SDS011;72375;59.302;18.204;2024-01-15T13:20:56;0.87;;;0.47;;
11663;SDS011;72375;59.302;18.204;2024-01-15T13:23:42;0.50;;;0.40;;
11663;SDS011;72375;59.302;18.204;2024-01-15T13:26:28;1.50;;;0.60;;
11663;SDS011;72375;59.302;18.204;2024-01-15T13:29:15;3.47;;;0.50;;
11663;SDS011;72375;59.302;18.204;2024-01-15T13:32:00;1.73;;;0.77;;
11663;SDS011;72375;59.302;18.204;2024-01-15T13:34:46;1.70;;;0.67;;
11663;SDS011;72375;59.302;18.204;2024-01-15T13:37:32;1.03;;;0.53;;
11663;SDS011;72375;59.302;18.204;2024-01-15T13:40:18;0.47;;;0.47;;
11663;SDS011;72375;59.302;18.204;2024-01-15T13:43:04;2.40;;;0.60;;
11663;SDS011;72375;59.302;18.204;2024-01-15T13:45:53;1.87;;;0.60;;
11663;SDS011;72375;59.302;18.204;2024-01-15T13:48:39;1.43;;;0.37;;
11663;SDS011;72375;59.302;18.204;2024-01-15T13:51:24;1.80;;;0.23;;
11663;SDS011;72375;59.302;18.204;2024-01-15T13:54:10;2.57;;;0.40;;
11663;SDS011;72375;59.302;18.204;2024-01-15T13:56:56;1.97;;;0.87;;
11663;SDS011;72375;59.302;18.204;2024-01-15T13:59:42;1.27;;;0.30;;
11663;SDS011;72375;59.302;18.204;2024-01-15T14:02:30;2.97;;;0.57;;
11663;SDS011;72375;59.302;18.204;2024-01-15T14:05:15;0.70;;;0.40;;
11663;SDS011;72375;59.302;18.204;2024-01-15T14:08:01;0.70;;;0.70;;
11663;SDS011;72375;59.302;18.204;2024-01-15T14:10:47;2.07;;;0.60;;
11663;SDS011;72375;59.302;18.204;2024-01-15T14:13:33;2.00;;;0.53;;
11663;SDS011;72375;59.302;18.204;2024-01-15T14:16:18;3.10;;;0.80;;
11663;SDS011;72375;59.302;18.204;2024-01-15T14:19:05;5.40;;;0.83;;
11663;SDS011;72375;59.302;18.204;2024-01-15T14:21:53;0.50;;;0.40;;
11663;SDS011;72375;59.302;18.204;2024-01-15T14:24:39;0.57;;;0.50;;
11663;SDS011;72375;59.302;18.204;2024-01-15T14:27:25;1.97;;;0.50;;
11663;SDS011;72375;59.302;18.204;2024-01-15T14:30:12;1.90;;;0.77;;
11663;SDS011;72375;59.302;18.204;2024-01-15T14:32:59;0.90;;;0.53;;
11663;SDS011;72375;59.302;18.204;2024-01-15T14:35:46;1.73;;;0.60;;
11663;SDS011;72375;59.302;18.204;2024-01-15T14:38:32;1.10;;;0.40;;
11663;SDS011;72375;59.302;18.204;2024-01-15T14:41:18;1.57;;;0.53;;
11663;SDS011;72375;59.302;18.204;2024-01-15T14:44:04;1.70;;;0.50;;
11663;SDS011;72375;59.302;18.204;2024-01-15T14:46:49;1.47;;;0.80;;
11663;SDS011;72375;59.302;18.204;2024-01-15T14:49:35;1.07;;;0.70;;
11663;SDS011;72375;59.302;18.204;2024-01-15T14:52:22;3.53;;;0.70;;
11663;SDS011;72375;59.302;18.204;2024-01-15T14:55:08;1.23;;;0.67;;
11663;SDS011;72375;59.302;18.204;2024-01-15T14:57:54;2.53;;;0.70;;
11663;SDS011;72375;59.302;18.204;2024-01-15T15:00:40;1.13;;;0.60;;
11663;SDS011;72375;59.302;18.204;2024-01-15T15:03:25;0.53;;;0.40;;
11663;SDS011;72375;59.302;18.204;2024-01-15T15:06:11;1.33;;;0.80;;
11663;SDS011;72375;59.302;18.204;2024-01-15T15:08:58;1.67;;;0.60;;
11663;SDS011;72375;59.302;18.204;2024-01-15T15:11:44;2.10;;;0.70;;
11663;SDS011;72375;59.302;18.204;2024-01-15T15:14:30;2.17;;;1.20;;
11663;SDS011;72375;59.302;18.204;2024-01-15T15:17:20;4.03;;;1.03;;
11663;SDS011;72375;59.302;18.204;2024-01-15T15:20:06;2.03;;;0.60;;
11663;SDS011;72375;59.302;18.204;2024-01-15T15:22:53;1.77;;;0.80;;
11663;SDS011;72375;59.302;18.204;2024-01-15T15:25:40;1.60;;;0.40;;
11663;SDS011;72375;59.302;18.204;2024-01-15T15:28:27;1.27;;;0.70;;
11663;SDS011;72375;59.302;18.204;2024-01-15T15:31:12;1.40;;;0.70;;
11663;SDS011;72375;59.302;18.204;2024-01-15T15:33:58;1.40;;;0.70;;
11663;SDS011;72375;59.302;18.204;2024-01-15T15:36:44;2.33;;;0.73;;
11663;SDS011;72375;59.302;18.204;2024-01-15T15:39:30;2.23;;;0.60;;
11663;SDS011;72375;59.302;18.204;2024-01-15T15:42:17;2.23;;;0.80;;
11663;SDS011;72375;59.302;18.204;2024-01-15T15:45:03;3.33;;;0.80;;
11663;SDS011;72375;59.302;18.204;2024-01-15T15:47:49;3.30;;;0.70;;
11663;SDS011;72375;59.302;18.204;2024-01-15T15:50:35;1.77;;;0.70;;
11663;SDS011;72375;59.302;18.204;2024-01-15T15:53:21;0.80;;;0.70;;
11663;SDS011;72375;59.302;18.204;2024-01-15T15:56:06;2.80;;;0.70;;
11663;SDS011;72375;59.302;18.204;2024-01-15T15:58:55;1.80;;;0.70;;
11663;SDS011;72375;59.302;18.204;2024-01-15T16:01:40;2.63;;;0.97;;
11663;SDS011;72375;59.302;18.204;2024-01-15T16:04:26;2.97;;;1.20;;
11663;SDS011;72375;59.302;18.204;2024-01-15T16:07:12;2.60;;;0.97;;
11663;SDS011;72375;59.302;18.204;2024-01-15T16:09:58;3.17;;;1.17;;
11663;SDS011;72375;59.302;18.204;2024-01-15T16:12:43;1.90;;;1.03;;
11663;SDS011;72375;59.302;18.204;2024-01-15T16:15:30;2.10;;;1.00;;
11663;SDS011;72375;59.302;18.204;2024-01-15T16:18:17;1.43;;;0.70;;
11663;SDS011;72375;59.302;18.204;2024-01-15T16:21:03;3.00;;;0.93;;
11663;SDS011;72375;59.302;18.204;2024-01-15T16:23:48;2.10;;;0.90;;
11663;SDS011;72375;59.302;18.204;2024-01-15T16:26:34;1.87;;;0.80;;
11663;SDS011;72375;59.302;18.204;2024-01-15T16:29:20;2.00;;;0.80;;
11663;SDS011;72375;59.302;18.204;2024-01-15T16:32:08;1.40;;;0.73;;
11663;SDS011;72375;59.302;18.204;2024-01-15T16:34:53;2.23;;;0.60;;